NCAR-RAP Real-Time Weather Data

Output produced by METARs form (19 June 2019  10:42 UTC)
found at http://weather.rap.ucar.edu/surface/
 
KDEN 190953Z 23004KT 10SM SCT120 SCT220 12/08 A2998 RMK AO2 SLP093 T01170083 $
KDEN 190853Z 22008KT 10SM SCT120 BKN220 12/09 A2997 RMK AO2 SLP090 T01220094 57015 $
KDEN 190753Z 23007KT 10SM FEW130 BKN220 12/10 A2999 RMK AO2 SLP097 T01220100 $
KDEN 190653Z 22011KT 10SM FEW130 BKN250 13/11 A3001 RMK AO2 SLP102 T01330106 402170044 $
KDEN 190553Z 21008KT 10SM FEW120 BKN250 13/11 A3003 RMK AO2 SLP107 60001 T01280111 10150 20122 56011 $
KDEN 190453Z 21008KT 10SM FEW090 FEW140 SCT250 14/11 A3004 RMK AO2 SLP115 T01390111 $
KDEN 190353Z 22011KT 10SM FEW090 SCT140 SCT220 14/12 A3004 RMK AO2 SLP117 T01390117 $
KDEN 190253Z 22008KT 10SM FEW040 SCT090 BKN160 BKN220 14/13 A3006 RMK AO2 SLP127 60001 T01390128 51010 $
KDEN 190153Z 15003KT 10SM FEW020 BKN110 BKN160 BKN220 14/12 A3006 RMK AO2 SLP131 T01390117 $
KDEN 190053Z 08009KT 10SM FEW050 SCT110 BKN140 BKN220 14/13 A3005 RMK AO2 LTG DSNT SE RAB13E29 SLP126 P0001 T01440128 $
KDEN 190001Z 08010KT 10SM FEW020 SCT060 BKN100 BKN220 13/12 A3004 RMK AO2 LTG DSNT E AND SE TS MOVD SE T01330117 $
KDEN 182353Z 06012KT 10SM VCTS FEW020 BKN065CB BKN130 BKN220 13/12 A3003 RMK AO2 PK WND 34047/2310 WSHFT 2254 LTG DSNT E AND SE RAB2259E51 TSE50 SLP121 OCNL LTGICCG VC E-SE TS VC E-SE MOV SE P0096 60096 T01330117 10217 201 $
KDEN 182319Z 06014G47KT 6SM +TSRA BR FEW008 BKN032CB BKN075 BKN130 11/11 A3004 RMK AO2 PK WND 34047/2310 WSHFT 2254 LTG DSNT NE RAB2259 PRESRR VIS E-S 1 1/2 CONS LTGICCG OHD TS OHD MOV S P0076 T01060106 $
KDEN 182314Z 01025G47KT 3/4SM +TSRA BR FEW008 BKN032CB BKN075 BKN130 12/11 A3004 RMK AO2 PK WND 34047/2310 WSHFT 2254 LTG DSNT W-NE RAB2259 FRQ LTGICCG OHD TS OHD MOV S P0009 T01170111 RVRNO
KDEN 182309Z 35030G43KT 1/2SM +TSRA FEW015 BKN035CB BKN075 BKN130 16/13 A3002 RMK AO2 PK WND 35043/2309 WSHFT 2254 LTG DSNT W-NE RAB2259 FRQ LTGICCG OHD TS OHD MOV S P0000 T01610128 RVRNO
KDEN 182305Z 02013KT 1/2SM +TSRA FEW015 BKN035CB BKN075 BKN130 18/13 A3001 RMK AO2 LTG DSNT W-NE RAB2259 FRQ LTGICCG OHD TS OHD MOV S P0000 T01830128 RVRNO
KDEN 182253Z 08012KT 10SM TS FEW031 BKN070CB BKN120 BKN220 19/13 A3000 RMK AO2 LTG DSNT NE AND NW TSB53 SLP101 OCNL LTGIC N TS MOV SE T01890128
KDEN 182246Z 10013G18KT 10SM VCTS SCT045 BKN070CB BKN120 BKN220 20/12 A3001 RMK AO2 LTG DSNT NE AND NW OCNL LTGIC VC N TS VC N MOV SE T02000122
KDEN 182153Z 05008KT 10SM SCT044 BKN070 BKN140 21/11 A3002 RMK AO2 LTG DSNT N SLP104 T02110106
KDEN 182053Z COR 26006KT 10SM FEW040 SCT075 BKN100 BKN200 21/11 A3003 RMK AO2 LTG DSNT NE AND E SLP105 T02060111 58018
KDEN 181953Z 25010KT 10SM SCT030 SCT075 BKN120 BKN220 20/11 A3006 RMK AO2 LTG DSNT NE-SE SLP119 TS MOV E T02000111
KDEN 181939Z 27007KT 10SM SCT028 SCT040 BKN085 20/12 A3007 RMK AO2 LTG DSNT NE AND E TS MOV E T02000117
KDEN 181907Z 25011KT 10SM VCTS SCT040CB SCT070 BKN085 19/11 A3007 RMK AO2 OCNL LTGICCG VC NE TS VC NE MOV E T01940111
KDEN 181853Z 26012KT 10SM SCT034 SCT045 BKN070 19/12 A3007 RMK AO2 SLP124 T01940117
KDEN 181753Z 35004KT 10SM SCT029 BKN034 BKN050 20/12 A3009 RMK AO2 LTG DSNT S SLP127 T02000117 10200 20133 58005
KDEN 181737Z 00000KT 10SM SCT029 BKN036 BKN050 18/11 A3010 RMK AO2 LTG DSNT S T01830111
KDEN 181653Z 00000KT 10SM SCT021 BKN028 BKN080 18/12 A3010 RMK AO2 SLP135 T01780117
KDEN 181553Z VRB04KT 10SM BKN020 BKN080 BKN120 17/12 A3011 RMK AO2 SLP138 T01720117
KDEN 181509Z 32005KT 10SM FEW009 SCT015 BKN080 BKN220 16/12 A3011 RMK AO2 T01610117
KDEN 181453Z 30005KT 10SM FEW009 BKN015 BKN080 BKN220 16/12 A3011 RMK AO2 SLP141 T01560117 53003